Time;durP1;ratioP1;P1;durP2;ratioP2;P2;SDS_P1;SDS_P2;PMS_P1;PMS_P2;Temp;Humidity;BMP_temperature;BMP_pressure;BME280_temperature;BME280_humidity;BME280_pressure;Samples;Min_cycle;Max_cycle;Signal;HPM_P1;HPM_P2
2021/11/08 00:02:08;;;;;;;8.40;5.50;;;9.90;99.90;;;;;;5056322;28;20568;-79
2021/11/08 00:04:35;;;;;;;15.13;7.73;;;9.90;99.90;;;;;;5057784;28;20435;-80
2021/11/08 00:07:03;;;;;;;9.23;5.83;;;9.80;99.90;;;;;;5059319;28;20541;-79
2021/11/08 00:09:30;;;;;;;11.30;6.30;;;9.70;99.90;;;;;;5056128;28;20549;-80
2021/11/08 00:11:57;;;;;;;10.52;6.15;;;9.70;99.90;;;;;;5087748;22;20236;-81
2021/11/08 00:14:25;;;;;;;16.13;6.30;;;9.60;99.90;;;;;;5065111;28;20322;-82
2021/11/08 00:17:02;;;;;;;11.70;6.10;;;9.60;99.90;;;;;;5063683;28;20274;-79
2021/11/08 00:22:26;;;;;;;11.18;6.07;;;9.60;99.90;;;;;;5001306;28;20778;-80
2021/11/08 00:24:53;;;;;;;13.70;5.73;;;9.60;99.90;;;;;;5048214;28;20205;-80
2021/11/08 00:27:20;;;;;;;9.98;5.47;;;9.70;99.90;;;;;;5063779;28;20998;-80
2021/11/08 00:29:47;;;;;;;12.30;5.93;;;9.80;99.90;;;;;;5063141;28;20209;-80
2021/11/08 00:32:14;;;;;;;10.90;5.65;;;9.80;99.90;;;;;;5062828;28;20260;-80
2021/11/08 00:34:43;;;;;;;9.63;5.17;;;9.80;99.90;;;;;;5062884;28;20240;-80
2021/11/08 00:37:09;;;;;;;8.37;5.47;;;9.90;99.90;;;;;;5062447;28;20921;-80
2021/11/08 00:39:38;;;;;;;12.80;5.67;;;10.00;99.90;;;;;;5065524;28;20837;-80
2021/11/08 00:42:05;;;;;;;12.97;5.60;;;10.00;99.90;;;;;;5067122;28;20818;-80
2021/11/08 00:44:32;;;;;;;13.30;6.07;;;9.90;99.90;;;;;;5067069;28;20879;-80
2021/11/08 00:46:59;;;;;;;10.52;5.28;;;9.80;99.90;;;;;;5069787;28;20205;-80
2021/11/08 00:49:27;;;;;;;8.10;5.05;;;9.80;99.90;;;;;;5057468;28;20213;-79
2021/11/08 00:51:56;;;;;;;8.53;5.13;;;9.70;99.90;;;;;;5057043;28;20297;-80
2021/11/08 00:54:23;;;;;;;15.23;5.45;;;9.60;99.90;;;;;;5058558;28;20486;-79
2021/11/08 00:56:53;;;;;;;13.83;5.40;;;9.50;99.90;;;;;;5070523;28;20597;-80
2021/11/08 00:59:20;;;;;;;13.35;5.25;;;9.40;99.90;;;;;;5067368;28;20451;-80
2021/11/08 01:01:52;;;;;;;12.93;6.47;;;9.20;99.90;;;;;;5066884;28;20240;-80
2021/11/08 01:04:21;;;;;;;16.13;6.10;;;9.20;99.90;;;;;;5064702;28;20202;-80
2021/11/08 01:06:48;;;;;;;9.27;5.07;;;9.10;99.90;;;;;;5065227;28;20270;-80
2021/11/08 01:09:18;;;;;;;10.63;5.90;;;9.00;99.90;;;;;;5065342;28;20219;-80
2021/11/08 01:11:45;;;;;;;10.57;6.70;;;8.90;99.90;;;;;;5065156;28;20238;-80
2021/11/08 01:14:12;;;;;;;9.48;5.55;;;8.90;99.90;;;;;;5064930;28;20237;-81
2021/11/08 01:16:40;;;;;;;13.93;6.55;;;8.90;99.90;;;;;;5067061;28;20586;-80
2021/11/08 01:19:08;;;;;;;10.43;6.30;;;9.00;99.90;;;;;;5067441;28;20634;-80
2021/11/08 01:21:35;;;;;;;11.32;6.45;;;9.00;99.90;;;;;;5068223;28;20238;-80
2021/11/08 01:24:03;;;;;;;8.30;5.78;;;9.00;99.90;;;;;;5066287;28;20693;-80
2021/11/08 01:26:32;;;;;;;9.68;6.00;;;9.00;99.90;;;;;;5066210;28;20262;-80
2021/11/08 01:28:59;;;;;;;10.65;6.45;;;8.80;99.90;;;;;;5065960;28;20610;-80
2021/11/08 01:31:26;;;;;;;11.90;6.10;;;8.70;99.90;;;;;;5066831;28;20224;-80
2021/11/08 01:33:54;;;;;;;20.50;6.72;;;8.80;99.90;;;;;;5066555;28;20231;-80
2021/11/08 01:36:24;;;;;;;11.93;7.13;;;8.60;99.90;;;;;;5065965;28;20282;-80
2021/11/08 01:38:54;;;;;;;11.70;6.13;;;8.60;99.90;;;;;;5067257;28;20435;-82
2021/11/08 01:41:24;;;;;;;14.30;6.10;;;8.50;99.90;;;;;;5070034;28;20736;-82
2021/11/08 01:43:53;;;;;;;10.73;6.50;;;8.50;99.90;;;;;;5061208;28;20235;-82
2021/11/08 01:46:22;;;;;;;13.18;6.85;;;8.40;99.90;;;;;;5059507;28;20295;-83
2021/11/08 01:48:50;;;;;;;11.27;6.90;;;8.30;99.90;;;;;;5059565;28;20275;-82
2021/11/08 01:51:17;;;;;;;10.25;5.95;;;8.30;99.90;;;;;;5064099;28;20318;-82
2021/11/08 01:53:44;;;;;;;12.48;6.20;;;8.10;99.90;;;;;;5062390;28;20615;-83
2021/11/08 01:56:12;;;;;;;13.65;7.13;;;7.90;99.90;;;;;;5062731;28;20231;-81
2021/11/08 01:58:39;;;;;;;12.50;6.22;;;8.20;99.90;;;;;;5060258;28;20269;-82
2021/11/08 02:01:08;;;;;;;14.68;6.97;;;8.20;99.90;;;;;;5060296;28;20231;-82
2021/11/08 02:03:36;;;;;;;11.35;6.28;;;8.10;99.90;;;;;;5060333;28;20294;-82
2021/11/08 02:06:03;;;;;;;12.80;6.70;;;8.20;99.90;;;;;;5059741;28;20207;-82
2021/11/08 02:08:29;;;;;;;15.98;7.20;;;8.00;99.90;;;;;;5058938;28;20207;-82
2021/11/08 02:10:57;;;;;;;24.98;7.20;;;8.10;99.90;;;;;;5058769;28;20558;-82
2021/11/08 02:13:25;;;;;;;15.13;7.47;;;8.10;99.90;;;;;;5058557;28;20287;-82
2021/11/08 02:15:52;;;;;;;10.73;5.70;;;8.10;99.90;;;;;;5058010;28;20238;-82
2021/11/08 02:18:23;;;;;;;13.18;5.93;;;7.90;99.90;;;;;;5060446;28;20675;-82
2021/11/08 02:20:52;;;;;;;11.13;5.63;;;8.10;99.90;;;;;;5058451;28;20243;-82
2021/11/08 02:23:20;;;;;;;9.90;5.80;;;8.20;99.90;;;;;;5059108;28;20210;-82
2021/11/08 02:25:49;;;;;;;12.05;6.20;;;8.00;99.90;;;;;;5056285;28;20206;-82
2021/11/08 02:28:17;;;;;;;10.25;6.30;;;7.90;99.90;;;;;;5056731;28;20207;-82
2021/11/08 02:30:44;;;;;;;8.13;5.18;;;7.90;99.90;;;;;;5056689;28;20238;-82
2021/11/08 02:33:15;;;;;;;8.55;5.90;;;7.90;99.90;;;;;;5056953;28;20284;-82
2021/11/08 02:35:43;;;;;;;11.27;5.93;;;7.80;99.90;;;;;;5057373;28;20254;-82
2021/11/08 02:38:16;;;;;;;11.30;5.60;;;7.70;99.90;;;;;;5057638;28;20283;-82
2021/11/08 02:40:43;;;;;;;10.20;5.88;;;7.60;99.90;;;;;;5057757;28;20242;-82
2021/11/08 02:43:19;;;;;;;13.48;7.68;;;7.60;99.90;;;;;;5057585;28;20679;-82
2021/11/08 02:45:46;;;;;;;9.07;6.03;;;7.50;99.90;;;;;;5057698;28;20210;-81
2021/11/08 02:48:14;;;;;;;12.48;6.95;;;7.60;99.90;;;;;;5066951;28;20361;-82
2021/11/08 02:50:41;;;;;;;13.50;5.68;;;7.40;99.90;;;;;;5070546;28;20231;-83
2021/11/08 02:53:12;;;;;;;8.48;6.00;;;7.60;99.90;;;;;;5065124;28;20237;-82
2021/11/08 02:55:41;;;;;;;12.98;6.75;;;7.40;99.90;;;;;;5060596;28;20233;-83
2021/11/08 02:58:08;;;;;;;18.65;5.90;;;7.40;99.90;;;;;;5058168;28;20245;-82
2021/11/08 03:00:36;;;;;;;11.18;5.75;;;7.30;99.90;;;;;;5057585;28;20521;-82
2021/11/08 03:03:03;;;;;;;10.45;6.15;;;7.20;99.90;;;;;;5057033;28;20299;-82
2021/11/08 03:05:33;;;;;;;12.38;6.95;;;7.20;99.90;;;;;;5057222;28;20238;-83
2021/11/08 03:08:00;;;;;;;9.98;5.40;;;7.40;99.90;;;;;;5057817;28;20648;-82
2021/11/08 03:10:30;;;;;;;12.10;5.97;;;7.10;99.90;;;;;;5057364;28;20239;-83
2021/11/08 03:13:06;;;;;;;11.30;6.25;;;7.10;99.90;;;;;;5058156;28;20231;-82
2021/11/08 03:15:45;;;;;;;10.98;5.88;;;7.20;99.90;;;;;;5060539;28;20520;-82
2021/11/08 03:18:16;;;;;;;9.50;6.10;;;6.90;99.90;;;;;;5070103;28;20225;-82
2021/11/08 03:20:43;;;;;;;15.45;6.25;;;7.00;99.90;;;;;;5069797;28;20241;-82
2021/11/08 03:23:12;;;;;;;10.85;6.35;;;7.00;99.90;;;;;;5061037;28;20212;-82
2021/11/08 03:25:46;;;;;;;11.70;5.95;;;6.90;99.90;;;;;;5059997;28;20186;-82
2021/11/08 03:28:14;;;;;;;12.73;6.05;;;6.90;99.90;;;;;;5058510;28;20503;-83
2021/11/08 03:30:45;;;;;;;10.85;5.55;;;6.80;99.90;;;;;;5057289;28;20257;-82
2021/11/08 03:33:13;;;;;;;11.20;5.38;;;7.00;99.90;;;;;;5057905;28;20191;-82
2021/11/08 03:35:41;;;;;;;10.07;5.78;;;6.90;99.90;;;;;;5057844;28;20302;-82
2021/11/08 03:38:10;;;;;;;9.60;5.93;;;7.00;99.90;;;;;;5057659;28;20565;-82
2021/11/08 03:40:40;;;;;;;10.38;6.25;;;6.80;99.90;;;;;;5060598;28;20648;-84
2021/11/08 03:43:10;;;;;;;12.50;5.82;;;6.70;99.90;;;;;;5066588;28;20209;-82
2021/11/08 03:45:40;;;;;;;10.15;5.97;;;6.80;99.90;;;;;;5062976;28;20689;-82
2021/11/08 03:48:10;;;;;;;10.07;6.15;;;6.60;99.90;;;;;;5057265;28;20190;-82
2021/11/08 03:50:37;;;;;;;13.35;6.05;;;6.80;99.90;;;;;;5056714;28;20206;-82
2021/11/08 03:53:04;;;;;;;10.68;5.75;;;6.90;99.90;;;;;;5057176;28;20212;-82
2021/11/08 03:55:31;;;;;;;13.10;7.28;;;6.60;99.90;;;;;;5060424;28;20328;-82
2021/11/08 03:57:58;;;;;;;9.10;6.13;;;6.80;99.90;;;;;;5057922;28;20210;-82
2021/11/08 04:00:27;;;;;;;13.60;6.28;;;6.80;99.90;;;;;;5057042;28;20526;-82
2021/11/08 04:02:56;;;;;;;12.77;6.25;;;6.80;99.90;;;;;;5058256;28;20390;-82
2021/11/08 04:05:25;;;;;;;10.50;5.43;;;6.90;99.90;;;;;;5056021;28;20289;-82
2021/11/08 04:07:52;;;;;;;8.50;5.45;;;6.80;99.90;;;;;;5055312;28;20213;-82
2021/11/08 04:10:21;;;;;;;10.80;6.43;;;6.80;99.90;;;;;;5055383;28;20210;-82
2021/11/08 04:12:49;;;;;;;9.85;5.60;;;6.90;99.90;;;;;;5056712;28;20581;-82
2021/11/08 04:15:17;;;;;;;11.88;6.53;;;6.50;99.90;;;;;;5059654;28;20218;-82
2021/11/08 04:17:45;;;;;;;9.77;5.43;;;6.80;99.90;;;;;;5064107;28;20211;-82
2021/11/08 04:20:17;;;;;;;12.50;5.45;;;6.60;99.90;;;;;;5060800;28;20671;-82
2021/11/08 04:22:46;;;;;;;12.45;6.22;;;6.50;99.90;;;;;;5060531;28;20194;-82
2021/11/08 04:25:14;;;;;;;10.15;5.68;;;6.50;99.90;;;;;;5060621;28;20210;-83
2021/11/08 04:27:42;;;;;;;11.55;6.20;;;6.50;99.90;;;;;;5060929;28;20556;-81
2021/11/08 04:30:12;;;;;;;14.65;6.28;;;6.50;99.90;;;;;;5060390;28;20245;-81
2021/11/08 04:32:48;;;;;;;8.05;5.40;;;6.50;99.90;;;;;;5059663;28;20233;-82
2021/11/08 04:35:20;;;;;;;11.23;6.38;;;6.50;99.90;;;;;;5060031;28;20584;-82
2021/11/08 04:38:09;;;;;;;9.55;5.50;;;6.60;99.90;;;;;;5060913;28;20615;-83
2021/11/08 04:40:41;;;;;;;8.35;5.10;;;6.40;99.90;;;;;;5067922;28;20252;-82
2021/11/08 04:43:13;;;;;;;9.93;6.05;;;6.30;99.90;;;;;;5066548;28;20175;-82
2021/11/08 04:48:52;;;;;;;12.20;5.50;;;6.40;99.90;;;;;;5057644;28;20223;-82
2021/11/08 04:51:31;;;;;;;8.75;5.68;;;6.30;99.90;;;;;;5077715;28;20246;-81
2021/11/08 04:54:06;;;;;;;10.93;5.80;;;6.20;99.90;;;;;;5073813;28;20270;-81
2021/11/08 04:56:53;;;;;;;10.00;5.90;;;6.40;99.90;;;;;;5060951;28;20217;-82
2021/11/08 05:21:39;;;;;;;14.68;6.22;;;5.90;99.90;;;;;;5060099;28;20228;-83
2021/11/08 05:24:21;;;;;;;9.20;5.50;;;5.90;99.90;;;;;;5060447;28;20202;-83
2021/11/08 05:32:17;;;;;;;13.20;6.00;;;5.70;99.90;;;;;;5065033;28;20232;-83
2021/11/08 05:34:45;;;;;;;10.45;6.10;;;5.80;99.90;;;;;;5065502;28;20206;-83
2021/11/08 05:37:12;;;;;;;9.25;5.30;;;5.80;99.90;;;;;;5071180;28;20221;-82
2021/11/08 05:39:46;;;;;;;12.43;5.88;;;5.80;99.90;;;;;;5061568;28;20281;-83
2021/11/08 05:42:13;;;;;;;9.18;5.43;;;5.90;99.90;;;;;;5065016;28;20229;-82
2021/11/08 05:44:41;;;;;;;11.88;6.35;;;5.70;99.90;;;;;;5075264;28;20206;-82
2021/11/08 05:47:08;;;;;;;8.60;5.78;;;5.60;99.90;;;;;;5061811;28;20201;-82
2021/11/08 05:49:36;;;;;;;13.18;6.03;;;5.50;99.90;;;;;;5060302;28;20288;-82
2021/11/08 05:52:04;;;;;;;9.57;5.80;;;5.70;99.90;;;;;;5059786;28;20293;-83
2021/11/08 05:54:32;;;;;;;8.18;5.45;;;5.60;99.90;;;;;;5059531;28;20213;-82
2021/11/08 05:57:18;;;;;;;10.60;6.25;;;5.60;99.90;;;;;;5060514;28;20218;-83
2021/11/08 06:00:05;;;;;;;9.93;5.25;;;5.50;99.90;;;;;;5058907;28;20578;-83
2021/11/08 06:49:20;;;;;;;11.15;5.80;;;5.10;99.90;;;;;;5037651;28;20642;-81
2021/11/08 06:51:50;;;;;;;11.23;5.93;;;5.10;99.90;;;;;;5037424;28;20254;-79
2021/11/08 06:54:18;;;;;;;10.00;5.53;;;5.20;99.90;;;;;;5037803;28;20280;-79
2021/11/08 06:56:50;;;;;;;9.60;5.50;;;5.20;99.90;;;;;;5036777;28;20309;-80
2021/11/08 06:59:19;;;;;;;10.68;6.00;;;5.30;99.90;;;;;;5039976;28;20202;-79
2021/11/08 07:01:49;;;;;;;13.55;6.70;;;5.50;99.90;;;;;;5040347;28;20242;-80
2021/11/08 07:04:16;;;;;;;14.30;6.32;;;5.20;99.90;;;;;;5037531;28;20313;-78
2021/11/08 07:06:43;;;;;;;15.18;6.05;;;5.30;99.90;;;;;;5036887;28;20207;-79
2021/11/08 07:09:11;;;;;;;10.27;5.90;;;5.50;99.90;;;;;;5037529;28;20647;-80
2021/11/08 07:11:39;;;;;;;12.20;6.05;;;5.50;99.90;;;;;;5039160;28;20230;-79
2021/11/08 07:14:06;;;;;;;11.55;6.13;;;5.50;99.90;;;;;;5037155;28;20238;-80
2021/11/08 07:16:33;;;;;;;9.65;6.28;;;5.50;99.90;;;;;;5037351;28;20613;-78
2021/11/08 07:19:01;;;;;;;10.50;6.30;;;5.50;99.90;;;;;;5036812;28;20676;-79
2021/11/08 07:21:28;;;;;;;13.35;5.85;;;5.60;99.90;;;;;;5037710;28;20318;-78
2021/11/08 07:23:55;;;;;;;10.63;5.68;;;5.50;99.90;;;;;;5041112;28;20211;-80
2021/11/08 07:26:22;;;;;;;11.82;6.75;;;5.40;99.90;;;;;;5037499;28;20207;-80
2021/11/08 07:28:49;;;;;;;8.43;5.43;;;5.60;99.90;;;;;;5037104;28;20207;-79
2021/11/08 07:31:16;;;;;;;15.48;6.47;;;5.50;99.90;;;;;;5036619;28;20716;-79
2021/11/08 07:33:43;;;;;;;8.85;5.50;;;5.70;99.90;;;;;;5037153;28;20297;-78
2021/11/08 07:36:11;;;;;;;8.43;5.55;;;5.60;99.90;;;;;;5042304;28;20254;-78
2021/11/08 07:38:38;;;;;;;11.85;6.95;;;5.80;99.90;;;;;;5038618;28;20265;-80
2021/11/08 07:41:10;;;;;;;13.55;7.07;;;5.80;99.90;;;;;;5035145;28;20238;-78
2021/11/08 07:43:37;;;;;;;12.60;6.30;;;5.90;99.90;;;;;;5035486;28;20198;-77
2021/11/08 07:46:04;;;;;;;9.75;6.38;;;5.80;99.90;;;;;;5036242;28;20215;-80
2021/11/08 07:48:31;;;;;;;15.50;7.35;;;5.80;99.90;;;;;;5040699;28;20297;-79
2021/11/08 07:50:58;;;;;;;12.73;6.63;;;6.10;99.90;;;;;;5041177;28;20245;-82
2021/11/08 07:53:26;;;;;;;10.25;5.85;;;6.00;99.90;;;;;;5041893;28;20208;-83
2021/11/08 07:55:53;;;;;;;10.60;6.97;;;6.40;99.90;;;;;;5040363;28;20714;-78
2021/11/08 07:58:20;;;;;;;11.68;6.90;;;6.30;99.90;;;;;;5038020;28;20211;-78
2021/11/08 08:00:47;;;;;;;14.55;6.38;;;6.30;99.90;;;;;;5037851;28;20281;-77
2021/11/08 08:03:16;;;;;;;12.50;6.95;;;6.40;99.90;;;;;;5038125;28;20309;-78
2021/11/08 08:05:43;;;;;;;13.20;7.68;;;6.40;99.90;;;;;;5040472;28;20301;-80
2021/11/08 08:08:10;;;;;;;13.95;6.68;;;6.40;99.90;;;;;;5039838;28;20218;-78
2021/11/08 08:10:38;;;;;;;11.82;7.70;;;6.50;99.90;;;;;;5040119;28;20213;-79
2021/11/08 08:13:04;;;;;;;11.18;6.95;;;6.60;99.90;;;;;;5040414;28;20325;-79
2021/11/08 08:15:32;;;;;;;14.95;7.05;;;6.70;99.90;;;;;;5039843;28;20207;-80
2021/11/08 08:18:00;;;;;;;17.40;8.20;;;6.70;99.90;;;;;;5040609;28;20757;-80
2021/11/08 08:20:31;;;;;;;14.32;7.95;;;6.90;99.90;;;;;;5043061;28;20210;-81
2021/11/08 08:22:58;;;;;;;13.98;8.75;;;6.80;99.90;;;;;;5044386;28;20231;-81
2021/11/08 08:25:25;;;;;;;17.35;9.05;;;7.10;99.90;;;;;;5050997;28;20208;-78
2021/11/08 08:27:53;;;;;;;15.00;8.55;;;7.00;99.90;;;;;;5051444;28;20286;-78
2021/11/08 08:30:21;;;;;;;24.15;7.55;;;7.10;99.90;;;;;;5044243;28;20257;-79
2021/11/08 08:32:48;;;;;;;12.57;7.63;;;7.20;99.90;;;;;;5040381;28;20227;-79
2021/11/08 08:35:14;;;;;;;17.25;8.60;;;7.30;99.90;;;;;;5039891;28;20195;-79
2021/11/08 08:37:42;;;;;;;12.63;8.10;;;7.40;99.90;;;;;;5039699;28;20263;-81
2021/11/08 08:40:10;;;;;;;15.75;7.55;;;7.40;99.90;;;;;;5040589;28;20215;-79
2021/11/08 08:42:37;;;;;;;12.70;7.40;;;7.60;99.90;;;;;;5044891;28;20234;-78
2021/11/08 08:45:07;;;;;;;17.60;8.48;;;7.60;99.90;;;;;;5050408;28;20299;-80
2021/11/08 08:47:34;;;;;;;14.98;8.02;;;7.70;99.90;;;;;;5045695;28;20235;-79
2021/11/08 08:50:01;;;;;;;17.30;9.60;;;7.70;99.90;;;;;;5048424;28;20238;-79
2021/11/08 08:52:28;;;;;;;16.98;8.95;;;7.80;99.90;;;;;;5040623;28;20270;-80
2021/11/08 08:54:56;;;;;;;16.52;9.55;;;7.90;99.90;;;;;;5040353;28;20217;-80
2021/11/08 08:57:22;;;;;;;20.77;9.82;;;7.90;99.90;;;;;;5040279;28;20278;-80
2021/11/08 08:59:49;;;;;;;18.58;8.93;;;8.00;99.90;;;;;;5039852;28;20570;-81
2021/11/08 09:02:18;;;;;;;18.30;8.48;;;7.80;99.90;;;;;;5039904;28;20236;-79
2021/11/08 09:04:45;;;;;;;14.25;8.80;;;8.30;99.90;;;;;;5040173;28;20299;-76
2021/11/08 09:07:15;;;;;;;18.20;9.27;;;8.40;99.90;;;;;;5035329;28;20210;-77
2021/11/08 09:09:43;;;;;;;20.77;10.13;;;8.50;99.90;;;;;;5036025;28;20198;-76
2021/11/08 09:12:11;;;;;;;17.73;10.60;;;8.50;99.90;;;;;;5036781;28;20274;-76
2021/11/08 09:14:38;;;;;;;15.05;10.70;;;8.50;99.90;;;;;;5042492;28;20212;-76
2021/11/08 09:17:06;;;;;;;14.60;8.52;;;8.50;99.90;;;;;;5037853;28;20238;-78
2021/11/08 09:19:34;;;;;;;17.05;8.98;;;8.60;99.90;;;;;;5037323;28;20266;-78
2021/11/08 09:22:02;;;;;;;22.48;10.15;;;8.60;99.90;;;;;;5037156;28;20229;-78
2021/11/08 09:24:28;;;;;;;22.67;10.13;;;8.80;99.90;;;;;;5037654;28;20235;-77
2021/11/08 09:26:55;;;;;;;16.58;8.82;;;8.90;99.90;;;;;;5035870;28;20587;-77
2021/11/08 09:29:23;;;;;;;14.05;9.15;;;9.00;99.90;;;;;;5040177;28;20215;-85
2021/11/08 09:31:50;;;;;;;16.27;8.98;;;9.10;99.90;;;;;;5038303;28;20238;-78
2021/11/08 09:34:21;;;;;;;19.42;8.35;;;9.20;99.90;;;;;;5040435;28;20626;-79
2021/11/08 09:36:50;;;;;;;13.85;9.05;;;9.20;99.90;;;;;;5038554;28;20304;-79
2021/11/08 09:39:22;;;;;;;13.47;8.00;;;9.30;99.90;;;;;;5037482;28;20236;-79
2021/11/08 09:41:50;;;;;;;18.92;9.25;;;9.30;99.90;;;;;;5039884;28;20533;-79
2021/11/08 09:44:18;;;;;;;20.70;7.43;;;9.40;99.90;;;;;;5037455;28;20301;-78
2021/11/08 09:46:45;;;;;;;18.60;9.18;;;9.50;99.90;;;;;;5036915;28;20443;-79
2021/11/08 09:49:12;;;;;;;17.10;8.20;;;9.70;99.90;;;;;;5038716;28;20211;-79
2021/11/08 09:51:42;;;;;;;17.60;8.23;;;9.80;99.90;;;;;;5038719;28;20229;-78
2021/11/08 09:54:11;;;;;;;21.92;10.82;;;9.80;99.90;;;;;;5039417;28;20211;-78
2021/11/08 09:56:39;;;;;;;18.90;9.17;;;9.80;99.90;;;;;;5038896;28;20252;-77
2021/11/08 09:59:06;;;;;;;18.97;10.10;;;9.80;99.90;;;;;;5037361;28;20451;-78
2021/11/08 10:01:36;;;;;;;19.77;10.00;;;10.00;99.90;;;;;;5037403;28;20997;-77
2021/11/08 10:04:03;;;;;;;17.70;8.30;;;10.00;99.90;;;;;;5035397;28;20451;-77
2021/11/08 10:06:31;;;;;;;16.95;10.80;;;10.00;99.90;;;;;;5035138;28;20526;-78
2021/11/08 10:08:59;;;;;;;21.80;10.48;;;9.90;99.90;;;;;;5037093;28;20214;-78
2021/11/08 10:11:28;;;;;;;17.70;8.60;;;10.00;99.90;;;;;;5036749;28;20621;-77
2021/11/08 10:13:55;;;;;;;22.98;8.43;;;9.90;99.90;;;;;;5043859;28;20410;-77
2021/11/08 10:16:26;;;;;;;16.47;8.37;;;10.10;99.90;;;;;;5034929;28;20275;-78
2021/11/08 10:18:55;;;;;;;17.40;7.97;;;10.10;99.90;;;;;;5035883;28;20435;-77
2021/11/08 10:21:26;;;;;;;14.17;7.57;;;10.20;99.90;;;;;;5035628;28;20224;-77
2021/11/08 10:23:56;;;;;;;13.20;7.27;;;10.40;99.90;;;;;;5034976;28;20480;-76
2021/11/08 10:26:25;;;;;;;15.73;6.90;;;10.30;99.90;;;;;;5034070;28;20470;-77
2021/11/08 10:28:55;;;;;;;13.63;7.40;;;10.20;99.90;;;;;;5035332;28;20456;-77
2021/11/08 10:31:28;;;;;;;17.27;7.10;;;10.00;99.90;;;;;;5035540;28;20228;-76
2021/11/08 10:33:57;;;;;;;12.88;8.10;;;10.00;99.90;;;;;;5037589;28;20756;-78
2021/11/08 10:36:24;;;;;;;18.02;9.00;;;10.00;99.90;;;;;;5043461;28;20206;-78
2021/11/08 10:38:54;;;;;;;15.80;8.43;;;10.10;99.90;;;;;;5039941;28;20224;-78
2021/11/08 10:41:24;;;;;;;16.55;7.93;;;10.10;99.90;;;;;;5037783;28;20471;-77
2021/11/08 10:43:55;;;;;;;14.95;6.90;;;10.00;99.90;;;;;;5033637;28;20696;-78
2021/11/08 10:46:24;;;;;;;14.40;6.80;;;10.00;99.90;;;;;;5034990;28;20210;-77
2021/11/08 10:48:53;;;;;;;19.75;8.43;;;9.80;99.90;;;;;;5033662;28;20276;-78
2021/11/08 10:51:23;;;;;;;19.20;10.65;;;9.70;99.90;;;;;;5034401;28;20732;-76
2021/11/08 10:53:53;;;;;;;19.80;8.95;;;9.70;99.90;;;;;;5033380;28;20707;-77
2021/11/08 10:56:24;;;;;;;21.30;9.27;;;9.70;99.90;;;;;;5033543;28;20212;-77
2021/11/08 10:58:51;;;;;;;21.63;8.40;;;9.90;99.90;;;;;;5033063;28;20479;-77
2021/11/08 11:01:26;;;;;;;17.03;9.13;;;9.90;99.90;;;;;;5035316;28;20234;-77
2021/11/08 11:03:55;;;;;;;15.37;8.70;;;9.80;99.90;;;;;;5036574;28;20462;-78
2021/11/08 11:06:34;;;;;;;22.27;8.33;;;9.80;99.90;;;;;;5037825;28;20452;-77
2021/11/08 11:09:02;;;;;;;15.67;7.70;;;10.00;99.90;;;;;;5036354;28;20437;-77
2021/11/08 11:11:29;;;;;;;21.83;8.00;;;10.10;99.90;;;;;;5035949;28;20484;-78
2021/11/08 11:13:56;;;;;;;9.00;5.70;;;10.30;99.90;;;;;;5034450;28;20898;-77
2021/11/08 11:16:36;;;;;;;21.03;8.20;;;10.30;99.90;;;;;;5033407;28;20528;-77
2021/11/08 11:19:07;;;;;;;17.33;7.88;;;10.30;99.90;;;;;;5035547;28;20480;-77
2021/11/08 11:21:34;;;;;;;18.20;7.10;;;10.40;99.90;;;;;;5034715;28;20230;-77
2021/11/08 11:24:03;;;;;;;13.63;7.50;;;10.50;99.90;;;;;;5035010;28;20468;-78
2021/11/08 11:26:35;;;;;;;14.87;7.57;;;10.30;99.90;;;;;;5036737;28;20505;-79
2021/11/08 11:29:04;;;;;;;16.10;7.70;;;10.50;99.90;;;;;;5043638;28;20522;-79
2021/11/08 11:31:39;;;;;;;16.80;7.20;;;10.50;99.90;;;;;;5037916;28;21023;-79
2021/11/08 11:34:14;;;;;;;10.07;6.80;;;10.30;99.90;;;;;;5037067;28;20531;-79
2021/11/08 11:36:41;;;;;;;21.60;9.10;;;10.30;99.90;;;;;;5034793;28;20502;-78
2021/11/08 11:39:12;;;;;;;20.67;7.77;;;10.30;99.90;;;;;;5035452;28;21105;-78
2021/11/08 11:41:42;;;;;;;19.67;8.03;;;10.20;99.90;;;;;;5034812;28;20526;-78
2021/11/08 11:44:10;;;;;;;15.53;6.97;;;10.30;99.90;;;;;;5036582;28;20522;-79
2021/11/08 11:46:41;;;;;;;18.50;8.27;;;10.30;99.90;;;;;;5034268;28;20452;-77
2021/11/08 11:49:09;;;;;;;14.93;6.10;;;10.40;99.90;;;;;;5034217;28;20437;-79
2021/11/08 11:51:39;;;;;;;18.73;7.07;;;10.40;99.90;;;;;;5033853;28;20555;-77
2021/11/08 11:54:08;;;;;;;17.20;7.27;;;10.20;99.90;;;;;;5037119;28;20213;-79
2021/11/08 11:56:37;;;;;;;14.50;6.35;;;9.90;99.90;;;;;;5035234;28;20457;-79
2021/11/08 11:59:06;;;;;;;14.88;6.45;;;9.70;99.90;;;;;;5034761;28;20717;-77
2021/11/08 12:01:35;;;;;;;19.53;8.40;;;9.90;99.90;;;;;;5034183;28;20229;-78
2021/11/08 12:04:03;;;;;;;15.73;7.90;;;9.80;99.90;;;;;;5033650;28;20428;-77
2021/11/08 12:06:34;;;;;;;12.50;7.40;;;9.80;99.90;;;;;;5032874;28;20251;-78
2021/11/08 12:09:05;;;;;;;18.70;7.30;;;9.90;99.90;;;;;;5032837;28;20459;-77
2021/11/08 12:11:34;;;;;;;14.70;5.80;;;10.00;99.90;;;;;;5039104;28;20241;-78
2021/11/08 12:14:03;;;;;;;14.23;7.28;;;9.90;99.90;;;;;;5035806;28;20635;-77
2021/11/08 12:16:33;;;;;;;17.15;6.05;;;10.00;99.90;;;;;;5032750;28;20303;-77
2021/11/08 12:19:02;;;;;;;11.43;5.77;;;10.10;99.90;;;;;;5032744;28;20225;-77
2021/11/08 12:21:32;;;;;;;14.00;5.82;;;10.20;99.90;;;;;;5032939;28;20560;-77
2021/11/08 12:24:01;;;;;;;14.00;5.55;;;10.20;99.90;;;;;;5032998;28;20209;-77
2021/11/08 12:26:30;;;;;;;15.07;5.53;;;10.20;99.90;;;;;;5087565;22;20288;-81
2021/11/08 12:29:13;;;;;;;15.00;5.77;;;10.30;99.90;;;;;;5057629;28;20197;-81
2021/11/08 12:31:40;;;;;;;20.75;4.65;;;10.40;99.90;;;;;;5062285;28;20442;-81
2021/11/08 12:34:09;;;;;;;15.57;4.70;;;10.30;99.90;;;;;;5056155;28;20291;-81
2021/11/08 12:36:38;;;;;;;16.33;5.50;;;10.40;99.90;;;;;;5059316;28;20553;-81
2021/11/08 12:39:08;;;;;;;19.63;5.30;;;10.40;99.90;;;;;;5060319;28;20490;-81
2021/11/08 12:41:44;;;;;;;11.93;5.27;;;10.30;99.90;;;;;;5059080;28;20819;-87
2021/11/08 12:44:12;;;;;;;11.23;5.80;;;10.50;99.90;;;;;;5059692;28;20442;-81
2021/11/08 12:46:42;;;;;;;16.60;5.97;;;10.50;99.90;;;;;;5065380;28;20569;-82
2021/11/08 12:49:14;;;;;;;14.40;5.93;;;10.60;99.90;;;;;;5060209;28;20529;-81
2021/11/08 12:51:53;;;;;;;16.17;5.83;;;10.50;99.90;;;;;;5058892;28;20443;-81
2021/11/08 12:54:20;;;;;;;16.90;5.70;;;10.50;99.90;;;;;;5058767;28;20462;-81
2021/11/08 12:56:48;;;;;;;16.50;6.67;;;10.50;99.90;;;;;;5058143;28;20468;-80
2021/11/08 12:59:23;;;;;;;15.60;5.70;;;10.50;99.90;;;;;;5058870;28;20490;-80
2021/11/08 13:01:54;;;;;;;15.90;5.63;;;10.50;99.90;;;;;;5059469;28;20440;-81
2021/11/08 13:04:31;;;;;;;17.43;5.93;;;10.60;99.90;;;;;;5059871;28;20438;-80
2021/11/08 13:07:07;;;;;;;18.93;5.57;;;10.80;99.90;;;;;;5058647;28;20406;-80
2021/11/08 13:09:40;;;;;;;10.83;4.43;;;10.80;99.90;;;;;;5058482;28;20795;-80
2021/11/08 13:12:13;;;;;;;14.13;4.83;;;10.80;99.90;;;;;;5057344;28;20835;-80
2021/11/08 13:14:40;;;;;;;10.67;4.17;;;11.00;99.90;;;;;;5056565;28;20917;-81
2021/11/08 13:17:09;;;;;;;12.70;5.10;;;11.00;99.90;;;;;;5056618;28;20505;-80
2021/11/08 13:19:43;;;;;;;13.37;5.70;;;10.90;99.90;;;;;;5057159;28;20490;-80
2021/11/08 13:22:19;;;;;;;18.10;4.90;;;10.80;99.90;;;;;;5056987;28;20748;-79
2021/11/08 13:24:56;;;;;;;14.73;4.73;;;10.90;99.90;;;;;;5056040;28;20866;-84
2021/11/08 13:27:23;;;;;;;14.27;5.13;;;10.90;99.90;;;;;;5056970;28;20497;-82
2021/11/08 13:29:56;;;;;;;11.17;4.83;;;11.00;99.90;;;;;;5057231;28;20459;-79
2021/11/08 13:32:23;;;;;;;8.53;4.07;;;11.10;99.90;;;;;;5059378;28;20870;-80
2021/11/08 13:34:52;;;;;;;16.50;5.23;;;11.20;99.90;;;;;;5059624;28;20472;-80
2021/11/08 13:37:22;;;;;;;19.03;6.27;;;11.30;99.90;;;;;;5063633;28;20464;-80
2021/11/08 13:39:51;;;;;;;13.07;5.20;;;11.30;99.90;;;;;;5057370;28;20483;-80
2021/11/08 13:42:21;;;;;;;8.40;3.60;;;11.40;99.90;;;;;;5057674;28;20452;-81
2021/11/08 13:44:49;;;;;;;7.07;3.30;;;11.50;99.90;;;;;;5057517;28;20454;-80
2021/11/08 13:47:17;;;;;;;12.70;4.27;;;11.70;99.90;;;;;;5065213;28;20463;-84
2021/11/08 13:49:44;;;;;;;8.13;3.30;;;11.80;99.90;;;;;;5061397;28;20452;-83
2021/11/08 13:52:17;;;;;;;12.83;4.70;;;11.80;99.90;;;;;;5070815;28;20430;-81
2021/11/08 13:54:49;;;;;;;11.50;5.27;;;11.70;99.90;;;;;;5072211;28;20459;-84
2021/11/08 13:57:18;;;;;;;11.27;5.00;;;11.60;99.90;;;;;;5070650;28;20861;-86
2021/11/08 13:59:47;;;;;;;14.23;5.77;;;11.60;99.90;;;;;;5069282;28;20547;-81
2021/11/08 14:02:16;;;;;;;18.87;6.43;;;11.50;99.90;;;;;;5068921;28;20448;-86
2021/11/08 14:04:45;;;;;;;17.23;7.50;;;11.50;99.90;;;;;;5066557;28;20443;-88
2021/11/08 14:07:14;;;;;;;9.07;4.10;;;11.40;99.90;;;;;;5073483;28;20455;-88
2021/11/08 14:09:43;;;;;;;19.77;5.93;;;11.50;99.90;;;;;;5062111;28;20454;-88
2021/11/08 14:14:57;;;;;;;9.50;4.70;;;11.20;99.90;;;;;;5071630;28;20473;-87
2021/11/08 14:17:29;;;;;;;7.17;3.40;;;11.10;99.90;;;;;;5063309;28;20494;-87
2021/11/08 14:19:59;;;;;;;13.00;5.17;;;11.00;99.90;;;;;;5059689;28;20489;-87